FNSOFNBG

Guest
Details From FNSO - SOYO
To FNBG - BENGUELA
Flight Number -
Tags generated
Created
Modified
Stats Distance 397 nm / 735 km
Max Altitude 35,000 ft / 10,668 m
Waypoints 7
Social Downloads 0
Likes 0
Share VATSIM

Download

Looking for another format? Having issues loading an existing format? Contact us
Advertisement - Login to hide

Notes

Basic altitude profile: - Ascent Rate: 2500ft/min - Ascent Speed: 250kts - Cruise Altitude: 35000ft - Cruise Speed: 420kts - Descent Rate: 1500ft/min - Descent Speed: 250kts Options: - Use NATs: yes - Use PACOTS: yes - Use low airways: yes - Use high airways: yes

Route

FNSO AVUTA R987F IMLEX UR987F VNA UJ614F LIRAM J614F BG FNBG

ID Type Via Altitude Latitude Longitude Leg Dist Tot Dist Heading (true) Name
O FNSO APT - 0 ft / 0 m -6.14109˚ 12.37177˚ - 0 nm - SOYO
AVUTA FIX - 17,800 ft / 5,425 m -6.93167˚ 12.62667˚ 49 nm 49 nm 162° / 162° -
IMLEX FIX R987F (AWY-LO) 23,500 ft / 7,163 m -7.56500˚ 12.83333˚ 39 nm 89 nm 162° / 162° -
VNA VOR UR987F (AWY-HI) 35,000 ft / 10,668 m -8.84548˚ 13.24748˚ 80 nm 170 nm 162° / 162° LUANDA VOR-DME
LIRAM FIX UJ614F (AWY-HI) 23,500 ft / 7,163 m -10.83333˚ 13.33000˚ 119 nm 290 nm 178° / 178° -
BG NDB J614F (AWY-LO) 6,000 ft / 1,829 m -12.60813˚ 13.40540˚ 106 nm 396 nm 178° / 178° BENGUELA NDB
O FNBG APT - 0 ft / 0 m -12.60902˚ 13.40371˚ 0 nm 396 nm 242° / 242° BENGUELA

Altitude Profile

Advertisement - Login to hide

Weather


0- 5 10 15 20 25 30 35+ Temperature / ° C

Clouds and Precipitation
Forecast for 2017-12-17 12:00 UTC. Updated 2 hours ago

Ground ~20,000 ft ~40,000 ft Winds

FNSO

Details ICAO FNSO (SZA)
Name SOYO
Region Angola
Timezone Africa/Luanda (UTC+1.0)
Stats Elevation 15 ft / 5 m (AMSL)
Location -6.141087° 12.371766°
Runways 1
Magnetic Variation 2.801° W

METAR

FNSO 170800Z 18004KT 9000 SCT016 ///// Q1012

Decode

TAF

TAF FNSO 162300Z 1700/1712 10005KT FEW015 BKN020 TEMPO 1702/1706 VRB03KT 7000 -RA FEW016 SCT025 BECMG 1708/1710 18005KT 9999 BKN014

Decode

Departure Runways

ID Width Length Bearing (true) Bearing (mag) Surface Threshold Offset Overrun Length
07 174 ft / 53 m 6,865 ft / 2,092 m 55.11° 57.91° Asphalt 0 ft / 0 m 0 ft / 0 m
25 174 ft / 53 m 6,865 ft / 2,092 m 235.11° 237.91° Asphalt 0 ft / 0 m 0 ft / 0 m

FNBG

Details ICAO FNBG (BUG)
Name BENGUELA
Region Angola
Timezone Africa/Luanda (UTC+1.0)
Stats Elevation 118 ft / 36 m (AMSL)
Location -12.609023° 13.403712°
Runways 1
Magnetic Variation 5.147° W

METAR

FNBG 170800Z 00000KT 6000 RA FEW013 OVC080 22/21 Q1014

Decode

TAF

TAF FNBG 162300Z 1700/1712 18010KT 9999 FEW016 BKN023 TEMPO 1702/1706 1204KT 8000 OVC015 BECMG 1708/1710 30008KT 9999 SCT015 BKN025

Decode

Destination Runways

ID Width Length Bearing (true) Bearing (mag) Surface Threshold Offset Overrun Length
14 100 ft / 30 m 5,263 ft / 1,604 m 130.28° 135.43° Asphalt 0 ft / 0 m 328 ft / 100 m
32 100 ft / 30 m 5,263 ft / 1,604 m 310.28° 315.43° Asphalt 0 ft / 0 m 185 ft / 56 m